Time;durP1;ratioP1;P1;durP2;ratioP2;P2;SDS_P1;SDS_P2;PMS_P1;PMS_P2;Temp;Humidity;BMP_temperature;BMP_pressure;BME280_temperature;BME280_humidity;BME280_pressure;Samples;Min_cycle;Max_cycle;Signal;HPM_P1;HPM_P2
2021/06/09 00:02:16;;;;;;;13.57;3.87;;;;;;;14.96;59.58;100615.27;125972;1091;22758;-59
2021/06/09 00:04:47;;;;;;;11.43;4.63;;;;;;;14.95;59.58;100616.52;126050;1092;22791;-59
2021/06/09 00:07:19;;;;;;;14.80;4.47;;;;;;;14.98;59.20;100613.47;126060;1093;22830;-60
2021/06/09 00:09:50;;;;;;;13.77;3.77;;;;;;;14.95;59.61;100611.67;125917;1093;22852;-58
2021/06/09 00:12:21;;;;;;;12.90;4.20;;;;;;;14.97;59.28;100616.79;126159;1093;22799;-58
2021/06/09 00:14:52;;;;;;;17.70;4.40;;;;;;;15.01;59.13;100611.70;125919;1092;22914;-59
2021/06/09 00:17:23;;;;;;;12.13;4.33;;;;;;;14.99;59.18;100603.00;126142;1093;24569;-60
2021/06/09 00:19:54;;;;;;;14.50;4.27;;;;;;;15.00;59.06;100608.12;125974;1093;24429;-58
2021/06/09 00:22:25;;;;;;;12.25;3.60;;;;;;;15.03;59.19;100601.50;125880;1092;22729;-60
2021/06/09 00:24:58;;;;;;;16.85;4.40;;;;;;;15.02;59.79;100602.77;126075;1093;22848;-60
2021/06/09 00:27:30;;;;;;;13.00;4.00;;;;;;;15.03;59.54;100607.13;126224;1093;22749;-58
2021/06/09 00:30:01;;;;;;;15.60;4.65;;;;;;;15.05;59.71;100610.21;125987;1093;22763;-58
2021/06/09 00:32:32;;;;;;;16.30;5.15;;;;;;;15.02;59.58;100616.82;126038;1093;22749;-58
2021/06/09 00:35:03;;;;;;;12.85;4.95;;;;;;;15.01;59.70;100611.70;125913;1092;22861;-58
2021/06/09 00:37:34;;;;;;;15.55;4.80;;;;;;;15.01;59.59;100618.11;126031;1093;22861;-57
2021/06/09 00:40:08;;;;;;;14.40;5.17;;;;;;;15.04;59.60;100616.34;126003;1092;26312;-58
2021/06/09 00:42:40;;;;;;;15.30;5.07;;;;;;;15.10;59.68;100622.77;126093;1092;27268;-58
2021/06/09 00:45:14;;;;;;;21.15;5.65;;;;;;;15.13;59.54;100625.34;125970;1093;22745;-57
2021/06/09 00:47:47;;;;;;;16.57;5.00;;;;;;;15.16;59.49;100624.35;126024;1093;23224;-58
2021/06/09 00:50:18;;;;;;;15.90;4.80;;;;;;;15.21;60.16;100620.79;125903;1093;26235;-58
2021/06/09 00:52:49;;;;;;;16.20;4.73;;;;;;;15.21;60.35;100620.79;125956;1093;22901;-58
2021/06/09 00:55:20;;;;;;;12.67;4.67;;;;;;;15.20;60.41;100621.30;126053;1093;22831;-58
2021/06/09 00:57:52;;;;;;;15.50;4.75;;;;;;;15.16;60.92;100618.73;125984;1093;22834;-60
2021/06/09 01:00:25;;;;;;;11.80;4.40;;;;;;;15.14;60.86;100609.25;126078;1093;22927;-58
2021/06/09 01:02:56;;;;;;;14.10;4.33;;;;;;;15.11;61.26;100608.20;126094;1093;23522;-58
2021/06/09 01:05:27;;;;;;;13.80;5.20;;;;;;;15.11;61.38;100616.64;125896;1093;22861;-58
2021/06/09 01:08:02;;;;;;;14.30;4.73;;;;;;;15.11;61.40;100625.08;125914;1093;22848;-59
2021/06/09 01:10:34;;;;;;;14.40;6.10;;;;;;;15.09;61.50;100621.99;126047;1093;26311;-58
2021/06/09 01:13:05;;;;;;;20.17;6.13;;;;;;;15.07;61.81;100612.52;125994;1092;22848;-58
2021/06/09 01:15:37;;;;;;;15.70;5.40;;;;;;;15.04;61.35;100614.28;125874;1092;22861;-58
2021/06/09 01:18:09;;;;;;;13.50;5.33;;;;;;;15.06;62.20;100610.98;126072;1093;22766;-59
2021/06/09 01:20:40;;;;;;;12.80;4.67;;;;;;;15.07;62.08;100615.32;125981;1093;22787;-58
2021/06/09 01:23:12;;;;;;;14.60;4.75;;;;;;;15.09;62.17;100609.97;126012;1093;22828;-57
2021/06/09 01:25:44;;;;;;;14.65;4.35;;;;;;;15.08;62.55;100616.88;125959;1093;22768;-58
2021/06/09 01:28:15;;;;;;;12.57;4.47;;;;;;;15.05;62.40;100621.45;125895;1093;22786;-58
2021/06/09 01:30:48;;;;;;;14.35;4.60;;;;;;;14.90;62.43;100620.83;125901;1093;22780;-56
2021/06/09 01:33:22;;;;;;;14.10;4.60;;;;;;;14.84;62.86;100611.59;125969;1093;22800;-55
2021/06/09 01:35:55;;;;;;;15.35;4.50;;;;;;;14.85;63.01;100613.14;125960;1093;24867;-59
2021/06/09 01:38:28;;;;;;;11.77;4.50;;;;;;;14.82;63.30;100622.56;125860;1093;22857;-57
2021/06/09 01:40:59;;;;;;;17.75;5.15;;;;;;;14.74;63.93;100629.13;125893;1093;23395;-58
2021/06/09 01:43:31;;;;;;;17.53;5.87;;;;;;;14.69;63.22;100622.19;125906;1093;22779;-59
2021/06/09 01:46:04;;;;;;;11.15;4.90;;;;;;;14.70;63.27;100612.50;125904;1093;24454;-56
2021/06/09 01:48:36;;;;;;;15.90;5.45;;;;;;;14.72;63.55;100624.02;126025;1093;26794;-59
2021/06/09 01:51:09;;;;;;;18.97;5.77;;;;;;;14.71;63.50;100604.84;125985;1092;24439;-59
2021/06/09 01:53:41;;;;;;;13.87;4.97;;;;;;;14.74;63.58;100612.27;126002;1093;27278;-57
2021/06/09 01:56:12;;;;;;;12.25;4.70;;;;;;;14.76;63.17;100604.88;125848;1093;22797;-58
2021/06/09 01:58:43;;;;;;;13.20;4.90;;;;;;;14.77;63.79;100605.66;125989;1093;22780;-58
2021/06/09 02:01:14;;;;;;;13.57;5.30;;;;;;;14.75;63.74;100608.20;125985;1093;24465;-58
2021/06/09 02:03:46;;;;;;;14.87;5.60;;;;;;;14.71;63.63;100619.65;125915;1093;22790;-58
2021/06/09 02:06:17;;;;;;;17.50;6.57;;;;;;;14.68;63.68;100617.84;126038;1092;22800;-56
2021/06/09 02:08:49;;;;;;;14.90;5.07;;;;;;;14.67;63.58;100615.55;125938;1093;22786;-58
2021/06/09 02:11:20;;;;;;;14.90;5.80;;;;;;;14.68;63.87;100615.04;126239;1092;23467;-57
2021/06/09 02:13:52;;;;;;;13.95;5.35;;;;;;;14.66;63.64;100616.80;126103;1092;22790;-60
2021/06/09 02:16:23;;;;;;;14.95;6.00;;;;;;;14.63;64.16;100615.75;125960;1093;25839;-58
2021/06/09 02:18:54;;;;;;;12.15;5.55;;;;;;;14.61;63.52;100615.48;126160;1093;24454;-56
2021/06/09 02:21:27;;;;;;;15.45;6.00;;;;;;;14.60;63.85;100608.34;125904;1092;22774;-56
2021/06/09 02:23:59;;;;;;;14.25;5.60;;;;;;;14.61;63.07;100611.92;125936;1093;22780;-57
2021/06/09 02:26:30;;;;;;;13.75;6.10;;;;;;;14.59;63.72;100612.40;126121;1093;22871;-55
2021/06/09 02:29:03;;;;;;;14.15;5.90;;;;;;;14.56;63.99;100616.22;125927;1092;22797;-57
2021/06/09 02:31:34;;;;;;;16.13;6.43;;;;;;;14.50;63.91;100616.15;126057;1093;25944;-57
2021/06/09 02:34:11;;;;;;;16.75;6.60;;;;;;;14.48;64.10;100621.49;125889;1093;27639;-58
2021/06/09 02:36:44;;;;;;;15.60;6.10;;;;;;;14.46;64.41;100618.41;125920;1092;24605;-58
2021/06/09 02:39:15;;;;;;;17.15;6.10;;;;;;;14.49;64.18;100613.84;125941;1093;22852;-54
2021/06/09 02:41:47;;;;;;;14.70;5.40;;;;;;;14.51;64.10;100619.73;125784;1093;27173;-56
2021/06/09 02:44:19;;;;;;;13.40;5.80;;;;;;;14.50;63.88;100621.02;127720;1093;23476;-55
2021/06/09 02:46:53;;;;;;;15.97;5.80;;;;;;;14.50;64.11;100612.59;125967;1093;24483;-58
2021/06/09 02:49:29;;;;;;;16.60;6.30;;;;;;;14.46;64.31;100614.86;125933;1093;22798;-58
2021/06/09 02:52:08;;;;;;;16.00;6.55;;;;;;;14.43;64.65;100615.83;125938;1093;26354;-55
2021/06/09 02:54:48;;;;;;;16.03;5.80;;;;;;;14.43;65.12;100613.02;125971;1093;22886;-58
2021/06/09 02:57:31;;;;;;;15.93;5.90;;;;;;;14.39;64.68;100610.45;125862;1093;22820;-58
2021/06/09 03:00:08;;;;;;;14.40;5.35;;;;;;;14.40;64.85;100611.23;126050;1093;23270;-57
2021/06/09 03:02:46;;;;;;;14.53;6.07;;;;;;;14.39;64.68;100606.86;125999;1093;22764;-58
2021/06/09 03:05:28;;;;;;;17.00;6.70;;;;;;;14.36;65.17;100611.42;126024;1092;22848;-56
2021/06/09 03:08:10;;;;;;;14.73;6.47;;;;;;;14.32;65.67;100616.50;126012;1092;22855;-57
2021/06/09 03:10:51;;;;;;;13.80;5.00;;;;;;;14.29;66.60;100616.72;125919;1093;22989;-58
2021/06/09 03:13:51;;;;;;;18.57;6.13;;;;;;;14.27;66.72;100608.77;125948;1092;22828;-58
2021/06/09 03:16:28;;;;;;;15.43;6.28;;;;;;;14.28;66.64;100615.14;125859;1093;22915;-58
2021/06/09 03:19:05;;;;;;;18.97;6.00;;;;;;;14.29;66.07;100611.89;126001;1093;22768;-56
2021/06/09 03:21:41;;;;;;;13.15;6.35;;;;;;;14.32;66.36;100613.69;126001;1093;22797;-56
2021/06/09 03:24:20;;;;;;;12.50;5.47;;;;;;;14.33;66.40;100622.89;126004;1093;22783;-57
2021/06/09 03:26:55;;;;;;;16.23;6.13;;;;;;;14.33;66.42;100625.70;125984;1093;25944;-58
2021/06/09 03:29:38;;;;;;;17.05;6.90;;;;;;;14.34;66.60;100610.38;126033;1093;23235;-55
2021/06/09 03:32:13;;;;;;;15.27;5.53;;;;;;;14.34;66.82;100618.80;125874;1093;27169;-58
2021/06/09 03:34:51;;;;;;;14.80;6.33;;;;;;;14.36;67.01;100619.10;125957;1093;22851;-57
2021/06/09 03:37:23;;;;;;;14.37;6.03;;;;;;;14.38;66.96;100625.00;125962;1093;22848;-56
2021/06/09 03:39:58;;;;;;;14.37;5.20;;;;;;;14.40;66.50;100620.41;125973;1093;22821;-58
2021/06/09 03:42:32;;;;;;;12.00;5.30;;;;;;;14.44;66.85;100617.39;125971;1092;22793;-60
2021/06/09 03:45:07;;;;;;;14.00;5.60;;;;;;;14.46;66.91;100624.03;126291;1093;25843;-57
2021/06/09 03:47:41;;;;;;;12.83;5.07;;;;;;;14.49;66.97;100628.67;126130;1092;22764;-57
2021/06/09 03:50:17;;;;;;;16.03;4.93;;;;;;;14.52;67.29;100626.91;126548;1090;22770;-58
2021/06/09 03:52:50;;;;;;;10.97;4.07;;;;;;;14.51;67.34;100626.13;125943;1090;22732;-60
2021/06/09 03:55:23;;;;;;;11.83;4.37;;;;;;;14.51;67.18;100626.13;127117;1090;26469;-59
2021/06/09 03:57:57;;;;;;;12.97;4.33;;;;;;;14.53;67.78;100640.45;126128;1090;22769;-59
2021/06/09 04:00:29;;;;;;;12.03;4.53;;;;;;;14.56;66.98;100635.89;130159;1090;22554;-60
2021/06/09 04:03:02;;;;;;;9.65;3.30;;;;;;;14.60;67.55;100647.67;130152;1090;22647;-60
2021/06/09 04:05:36;;;;;;;10.23;3.93;;;;;;;14.64;67.94;100642.59;130161;1089;22527;-60
2021/06/09 04:08:10;;;;;;;9.55;3.25;;;;;;;14.71;67.66;100647.00;130147;1090;22595;-60
2021/06/09 04:10:47;;;;;;;7.80;3.07;;;;;;;14.77;67.51;100645.78;128302;1090;22804;-60
2021/06/09 04:13:19;;;;;;;10.90;3.40;;;;;;;14.84;67.91;100648.13;126003;1090;22858;-63
2021/06/09 04:15:52;;;;;;;12.20;4.10;;;;;;;14.89;67.99;100652.26;126045;1090;22839;-60
2021/06/09 04:18:24;;;;;;;10.80;3.70;;;;;;;14.95;68.12;100644.63;125957;1090;22754;-60
2021/06/09 04:20:56;;;;;;;13.77;4.43;;;;;;;15.03;67.70;100657.73;125898;1090;22759;-60
2021/06/09 04:23:27;;;;;;;12.40;3.55;;;;;;;15.12;67.66;100651.94;125852;1090;27151;-60
2021/06/09 04:25:59;;;;;;;14.73;3.00;;;;;;;15.20;67.65;100653.02;125876;1090;22770;-60
2021/06/09 04:28:31;;;;;;;8.30;2.70;;;;;;;15.29;67.40;100652.80;125983;1090;22790;-57
2021/06/09 04:31:04;;;;;;;7.70;2.50;;;;;;;15.38;67.81;100649.02;126038;1090;22932;-57
2021/06/09 04:33:36;;;;;;;10.10;2.67;;;;;;;15.47;67.40;100645.27;126182;1090;22921;-57
2021/06/09 04:36:12;;;;;;;10.95;2.30;;;;;;;15.56;67.69;100659.14;125951;1090;22739;-58
2021/06/09 04:38:43;;;;;;;9.45;2.60;;;;;;;15.64;67.23;100649.72;125997;1090;22770;-57
2021/06/09 04:41:15;;;;;;;11.63;2.80;;;;;;;15.70;67.27;100647.70;125886;1090;22755;-58
2021/06/09 04:43:47;;;;;;;9.07;2.53;;;;;;;15.73;66.91;100651.53;126065;1090;22756;-65
2021/06/09 04:46:23;;;;;;;9.20;2.00;;;;;;;15.74;66.96;100653.09;125931;1090;22955;-56
2021/06/09 04:49:03;;;;;;;9.17;1.93;;;;;;;15.73;67.08;100655.13;125947;1090;23239;-57
2021/06/09 04:51:37;;;;;;;6.55;1.93;;;;;;;15.72;66.70;100652.82;125976;1088;22760;-57
2021/06/09 04:54:09;;;;;;;6.75;1.60;;;;;;;15.72;66.70;100655.63;125876;1089;25839;-58
2021/06/09 04:56:41;;;;;;;6.60;2.30;;;;;;;15.76;66.84;100658.98;125972;1090;22848;-56
2021/06/09 04:59:12;;;;;;;8.60;1.90;;;;;;;15.82;66.68;100651.33;125963;1090;24311;-57
2021/06/09 05:01:43;;;;;;;9.13;2.20;;;;;;;15.91;66.64;100653.93;126213;1090;26950;-55
2021/06/09 05:04:16;;;;;;;9.65;2.75;;;;;;;16.02;66.67;100660.37;125891;1090;24194;-56
2021/06/09 05:06:48;;;;;;;8.33;2.03;;;;;;;16.19;67.02;100654.78;125822;1090;22797;-57
2021/06/09 05:09:20;;;;;;;6.70;2.30;;;;;;;16.37;66.62;100659.17;125690;1090;23447;-57
2021/06/09 05:11:53;;;;;;;7.05;1.60;;;;;;;16.52;65.75;100662.56;125659;1090;22835;-57
2021/06/09 05:14:29;;;;;;;6.13;1.93;;;;;;;16.65;66.02;100660.80;130159;1090;22943;-57
2021/06/09 05:17:01;;;;;;;5.30;1.50;;;;;;;16.77;64.91;100664.39;130141;1090;22467;-56
2021/06/09 05:19:34;;;;;;;6.30;1.67;;;;;;;16.83;65.27;100663.12;128704;1090;22915;-56
2021/06/09 05:22:11;;;;;;;8.50;1.50;;;;;;;16.88;64.42;100665.16;125781;1090;22743;-57
2021/06/09 05:24:44;;;;;;;11.05;1.65;;;;;;;16.91;64.41;100666.96;125869;1090;27319;-57
2021/06/09 05:27:20;;;;;;;7.15;1.65;;;;;;;16.93;64.88;100670.03;125927;1090;27135;-56
2021/06/09 05:29:52;;;;;;;5.70;1.73;;;;;;;16.98;64.69;100674.14;125995;1090;22852;-56
2021/06/09 05:32:24;;;;;;;8.85;1.90;;;;;;;17.06;64.85;100671.56;125832;1090;22918;-55
2021/06/09 05:34:56;;;;;;;9.87;2.07;;;;;;;17.14;64.25;100676.18;125882;1090;22768;-57
2021/06/09 05:37:27;;;;;;;8.80;2.00;;;;;;;17.24;63.52;100668.98;125960;1093;22778;-56
2021/06/09 05:39:58;;;;;;;7.45;1.75;;;;;;;17.35;63.66;100673.84;126008;1089;22780;-56
2021/06/09 05:42:29;;;;;;;6.40;1.60;;;;;;;17.42;63.25;100676.90;126044;1090;22839;-56
2021/06/09 05:45:01;;;;;;;4.25;1.40;;;;;;;17.47;62.97;100681.00;125984;1090;22754;-56
2021/06/09 05:47:38;;;;;;;6.90;1.70;;;;;;;17.51;62.69;100673.07;125996;1090;22754;-56
2021/06/09 05:50:16;;;;;;;7.05;1.65;;;;;;;17.56;62.06;100667.43;125957;1089;22814;-56
2021/06/09 05:52:51;;;;;;;4.55;1.60;;;;;;;17.63;61.97;100674.58;126121;1089;22773;-55
2021/06/09 05:55:25;;;;;;;5.67;1.77;;;;;;;17.70;62.24;100679.70;126057;1090;22751;-56
2021/06/09 05:58:00;;;;;;;6.15;1.90;;;;;;;17.78;62.31;100678.65;126091;1089;22780;-57
2021/06/09 06:00:32;;;;;;;8.10;1.60;;;;;;;17.90;61.90;100687.09;126003;1090;26244;-57
2021/06/09 06:03:06;;;;;;;9.85;1.90;;;;;;;17.96;61.57;100690.66;126137;1090;26260;-56
2021/06/09 06:05:40;;;;;;;6.90;1.60;;;;;;;17.99;61.13;100687.56;125941;1093;24558;-56
2021/06/09 06:08:11;;;;;;;7.00;1.60;;;;;;;18.03;61.40;100684.45;126081;1090;22751;-56
2021/06/09 06:10:42;;;;;;;6.50;1.60;;;;;;;18.09;61.23;100679.55;125961;1093;22857;-57
2021/06/09 06:13:15;;;;;;;7.35;1.70;;;;;;;18.15;60.66;100689.53;125796;1090;25819;-56
2021/06/09 06:15:47;;;;;;;5.15;1.55;;;;;;;18.21;60.54;100681.80;125676;1089;23293;-58
2021/06/09 06:18:32;;;;;;;8.90;2.15;;;;;;;18.24;60.35;100689.24;125871;1088;27176;-58
2021/06/09 06:21:04;;;;;;;6.40;1.83;;;;;;;18.28;60.12;100686.14;125839;1089;22784;-57
2021/06/09 06:23:36;;;;;;;5.45;1.90;;;;;;;18.29;59.58;100693.34;125851;1090;22768;-57
2021/06/09 06:26:10;;;;;;;7.40;2.10;;;;;;;18.32;59.83;100692.28;125750;1089;26432;-57
2021/06/09 06:28:42;;;;;;;8.05;2.00;;;;;;;18.37;59.84;100700.72;126183;1090;22751;-56
2021/06/09 06:31:15;;;;;;;8.90;2.35;;;;;;;18.37;59.16;100695.06;125909;1090;22765;-58
2021/06/09 06:33:48;;;;;;;9.45;1.80;;;;;;;18.41;59.81;100684.28;126441;1090;22839;-56
2021/06/09 06:36:20;;;;;;;6.20;1.70;;;;;;;18.52;59.37;100694.75;126141;1090;26561;-57
2021/06/09 06:38:52;;;;;;;7.90;2.30;;;;;;;18.57;58.97;100696.79;125874;1090;25899;-57
2021/06/09 06:41:23;;;;;;;6.75;2.00;;;;;;;18.63;58.60;100691.09;125811;1090;26956;-58
2021/06/09 06:43:55;;;;;;;6.40;2.20;;;;;;;18.62;58.72;100695.23;125943;1089;26223;-57
2021/06/09 06:46:28;;;;;;;7.50;1.93;;;;;;;18.61;58.80;100690.84;125929;1090;25865;-57
2021/06/09 06:48:59;;;;;;;6.90;1.95;;;;;;;18.67;59.42;100691.58;125962;1089;22918;-57
2021/06/09 06:51:31;;;;;;;7.60;1.60;;;;;;;18.75;58.88;100693.32;125909;1090;22793;-56
2021/06/09 06:54:03;;;;;;;7.35;1.45;;;;;;;18.85;58.51;100702.27;125953;1090;22787;-58
2021/06/09 06:56:36;;;;;;;8.00;2.20;;;;;;;18.89;58.15;100694.27;125863;1090;22855;-54
2021/06/09 06:59:08;;;;;;;7.70;2.10;;;;;;;18.91;58.38;100700.16;125886;1090;27172;-57
2021/06/09 07:01:40;;;;;;;7.53;2.30;;;;;;;18.97;58.13;100707.32;125892;1090;24673;-56
2021/06/09 07:04:15;;;;;;;8.15;1.90;;;;;;;18.95;57.80;100698.59;126015;1090;22835;-57
2021/06/09 07:06:47;;;;;;;7.07;1.77;;;;;;;18.98;58.23;100702.41;125860;1090;26226;-57
2021/06/09 07:09:21;;;;;;;8.50;2.20;;;;;;;19.06;58.01;100694.88;125903;1090;22848;-56
2021/06/09 07:11:53;;;;;;;7.97;2.03;;;;;;;19.16;58.44;100698.94;125983;1090;22854;-57
2021/06/09 07:14:29;;;;;;;7.85;2.05;;;;;;;19.25;57.06;100701.41;125990;1090;22777;-58
2021/06/09 07:17:00;;;;;;;7.35;2.00;;;;;;;19.28;57.33;100700.37;125968;1089;22860;-56
2021/06/09 07:19:33;;;;;;;6.97;2.00;;;;;;;19.34;57.58;100701.88;125882;1090;22760;-55
2021/06/09 07:22:06;;;;;;;9.40;2.40;;;;;;;19.40;56.76;100693.33;125956;1090;23627;-59
2021/06/09 07:24:39;;;;;;;7.60;1.90;;;;;;;19.43;56.90;100702.83;126008;1090;27061;-58
2021/06/09 07:27:12;;;;;;;8.30;2.60;;;;;;;19.50;56.85;100703.00;125867;1089;22777;-56
2021/06/09 07:29:44;;;;;;;8.37;2.20;;;;;;;19.56;57.28;100702.94;125966;1090;22763;-57
2021/06/09 07:32:17;;;;;;;6.00;1.90;;;;;;;19.61;56.74;100697.23;125899;1090;22755;-57
2021/06/09 07:34:49;;;;;;;6.73;2.00;;;;;;;19.68;56.27;100693.80;125967;1090;26248;-57
2021/06/09 07:37:23;;;;;;;7.10;2.35;;;;;;;19.73;56.31;100695.03;125986;1090;22845;-57
2021/06/09 07:39:57;;;;;;;11.37;2.27;;;;;;;19.79;56.31;100702.18;125977;1090;26245;-57
2021/06/09 07:42:29;;;;;;;7.05;1.90;;;;;;;19.82;56.16;100703.19;126201;1090;22794;-57
2021/06/09 07:45:03;;;;;;;7.90;2.55;;;;;;;19.88;56.24;100701.05;125886;1090;22895;-57
2021/06/09 07:47:36;;;;;;;6.47;2.20;;;;;;;19.94;55.76;100702.53;126081;1090;22790;-57
2021/06/09 07:50:13;;;;;;;6.90;2.20;;;;;;;20.01;56.22;100701.14;125844;1090;22825;-57
2021/06/09 07:52:45;;;;;;;6.77;1.80;;;;;;;20.09;55.11;100699.27;125969;1090;26194;-56
2021/06/09 07:55:17;;;;;;;6.45;1.70;;;;;;;20.16;54.37;100696.58;126095;1090;25961;-56
2021/06/09 07:57:49;;;;;;;5.40;1.40;;;;;;;20.20;53.82;100699.13;125845;1090;25912;-57
2021/06/09 08:00:21;;;;;;;6.43;1.60;;;;;;;20.28;52.44;100704.98;125963;1090;28662;-57
2021/06/09 08:02:54;;;;;;;4.70;1.40;;;;;;;20.33;53.13;100699.23;125959;1090;22860;-57
2021/06/09 08:05:27;;;;;;;6.80;2.35;;;;;;;20.37;52.68;100704.58;125978;1090;27265;-57
2021/06/09 08:07:59;;;;;;;4.93;1.30;;;;;;;20.37;52.32;100713.09;126060;1090;26512;-56
2021/06/09 08:10:32;;;;;;;7.53;1.43;;;;;;;20.38;51.80;100704.03;126090;1090;22761;-57
2021/06/09 08:13:03;;;;;;;4.10;1.50;;;;;;;20.40;51.40;100709.19;126073;1090;22761;-56
2021/06/09 08:15:35;;;;;;;3.45;0.90;;;;;;;20.47;49.73;100714.23;126116;1090;27697;-56
2021/06/09 08:18:06;;;;;;;6.30;0.80;;;;;;;20.47;49.23;100708.56;125934;1090;28584;-57
2021/06/09 08:20:52;;;;;;;4.95;0.80;;;;;;;20.49;48.65;100705.95;125835;1090;22813;-57
2021/06/09 08:23:23;;;;;;;5.33;0.80;;;;;;;20.54;49.13;100700.23;125987;1093;22820;-57
2021/06/09 08:25:54;;;;;;;6.67;1.10;;;;;;;20.56;48.76;100708.96;125833;1090;28331;-57
2021/06/09 08:28:27;;;;;;;2.40;0.70;;;;;;;20.58;48.80;100697.07;125886;1090;22774;-56
2021/06/09 08:31:00;;;;;;;6.35;1.05;;;;;;;20.70;48.89;100712.62;125992;1090;22845;-57
2021/06/09 08:33:35;;;;;;;2.80;0.70;;;;;;;20.79;48.41;100709.40;126036;1090;22751;-56
2021/06/09 08:36:07;;;;;;;5.93;1.00;;;;;;;20.84;48.55;100714.20;126038;1090;28673;-57
2021/06/09 08:38:39;;;;;;;3.98;0.80;;;;;;;20.90;47.40;100712.05;126215;1090;23212;-55
2021/06/09 08:41:12;;;;;;;3.03;0.70;;;;;;;20.99;47.80;100703.14;126084;1090;22764;-57
2021/06/09 08:43:46;;;;;;;2.40;0.80;;;;;;;21.12;47.57;100703.22;126129;1090;22770;-57
2021/06/09 08:46:19;;;;;;;2.98;0.90;;;;;;;21.21;47.15;100702.05;126097;1090;24440;-56
2021/06/09 08:48:50;;;;;;;2.18;0.60;;;;;;;21.25;45.81;100705.33;125909;1089;22854;-56
2021/06/09 08:51:22;;;;;;;3.90;0.60;;;;;;;21.25;45.33;100700.39;126030;1090;22829;-56
2021/06/09 08:53:54;;;;;;;3.85;0.70;;;;;;;21.28;45.82;100698.55;126077;1090;22898;-57
2021/06/09 08:56:26;;;;;;;2.73;0.70;;;;;;;21.35;45.48;100707.22;125940;1090;22792;-55
2021/06/09 08:58:58;;;;;;;2.48;0.60;;;;;;;21.39;45.62;100696.30;125941;1090;24476;-57
2021/06/09 09:01:31;;;;;;;3.95;0.73;;;;;;;21.47;45.82;100696.41;126060;1090;26283;-57
2021/06/09 09:04:04;;;;;;;3.70;0.60;;;;;;;21.56;45.52;100693.89;126080;1090;22773;-57
2021/06/09 09:06:36;;;;;;;3.30;0.70;;;;;;;21.67;45.04;100695.77;125920;1090;26223;-57
2021/06/09 09:09:09;;;;;;;4.53;0.65;;;;;;;21.70;45.22;100694.69;126015;1090;22986;-56
2021/06/09 09:11:41;;;;;;;2.73;0.80;;;;;;;21.77;44.48;100704.64;126041;1090;22764;-57
2021/06/09 09:14:14;;;;;;;2.20;0.60;;;;;;;21.78;44.27;100703.31;126178;1090;22761;-57
2021/06/09 09:17:09;;;;;;;2.88;0.63;;;;;;;21.79;43.53;100704.86;125825;1090;23015;-56
2021/06/09 09:19:41;;;;;;;5.90;0.63;;;;;;;21.83;44.43;100713.85;126101;1090;22848;-57
2021/06/09 09:22:18;;;;;;;2.15;0.50;;;;;;;21.86;43.37;100704.98;126127;1090;22971;-57
2021/06/09 09:24:52;;;;;;;2.05;0.43;;;;;;;21.91;42.44;100706.20;125895;1090;22835;-57
2021/06/09 09:27:28;;;;;;;4.18;0.88;;;;;;;21.99;41.52;100710.68;125998;1090;22780;-57
2021/06/09 09:30:04;;;;;;;3.75;0.40;;;;;;;22.09;41.51;100708.14;125847;1090;22762;-57
2021/06/09 09:32:36;;;;;;;3.28;0.35;;;;;;;22.11;39.29;100716.89;125974;1090;24418;-57
2021/06/09 09:35:12;;;;;;;2.33;0.30;;;;;;;22.02;39.09;100717.33;125935;1090;25916;-57
2021/06/09 09:37:43;;;;;;;1.15;0.30;;;;;;;22.09;38.60;100713.83;126028;1090;26225;-56
2021/06/09 09:40:18;;;;;;;2.28;0.40;;;;;;;22.09;37.12;100720.29;125901;1090;23046;-57
2021/06/09 09:42:50;;;;;;;3.03;0.50;;;;;;;22.07;38.43;100713.61;126001;1090;22790;-58
2021/06/09 09:45:28;;;;;;;1.90;0.30;;;;;;;22.09;37.74;100706.08;126053;1089;25836;-58
2021/06/09 09:48:11;;;;;;;2.30;0.40;;;;;;;22.19;37.48;100698.63;125887;1090;25815;-57
2021/06/09 09:50:44;;;;;;;4.60;0.40;;;;;;;22.25;37.44;100707.80;125957;1090;26934;-56
2021/06/09 09:53:18;;;;;;;6.30;0.48;;;;;;;22.31;34.87;100711.28;126128;1090;22765;-58
2021/06/09 09:56:05;;;;;;;5.53;0.38;;;;;;;22.31;34.31;100719.82;125975;1090;22987;-57
2021/06/09 09:58:38;;;;;;;2.60;0.20;;;;;;;22.29;34.01;100710.30;126042;1090;22765;-57
2021/06/09 10:01:21;;;;;;;0.85;0.25;;;;;;;22.34;33.80;100709.42;126058;1093;22757;-58
2021/06/09 10:03:53;;;;;;;3.08;1.13;;;;;;;22.33;35.01;100716.42;125944;1090;22786;-58
2021/06/09 10:06:30;;;;;;;2.70;0.40;;;;;;;22.32;35.52;100709.21;125811;1090;22750;-58
2021/06/09 10:09:12;;;;;;;2.88;0.40;;;;;;;22.27;35.80;100713.70;126050;1090;22760;-57
2021/06/09 10:11:46;;;;;;;2.08;0.35;;;;;;;22.27;35.69;100712.93;125945;1090;22899;-56
2021/06/09 10:14:23;;;;;;;4.43;0.40;;;;;;;22.38;36.26;100704.16;125980;1090;22794;-57
2021/06/09 10:17:01;;;;;;;7.05;0.50;;;;;;;22.48;36.27;100708.08;125957;1090;22760;-57
2021/06/09 10:19:35;;;;;;;4.05;0.30;;;;;;;22.52;35.95;100709.27;125956;1090;22905;-57
2021/06/09 10:22:09;;;;;;;4.13;0.50;;;;;;;22.56;36.30;100717.46;126034;1090;22751;-57
2021/06/09 10:24:47;;;;;;;6.18;0.40;;;;;;;22.60;36.29;100711.45;126009;1089;22761;-57
2021/06/09 10:27:32;;;;;;;2.60;0.40;;;;;;;22.62;36.90;100714.51;125936;1090;22836;-58
2021/06/09 10:30:20;;;;;;;7.73;0.58;;;;;;;22.66;36.40;100710.02;125855;1090;27179;-57
2021/06/09 10:32:56;;;;;;;2.53;0.60;;;;;;;22.68;36.63;100707.38;125863;1088;22754;-58
2021/06/09 10:35:29;;;;;;;2.40;0.40;;;;;;;22.66;36.43;100712.86;126162;1089;27329;-58
2021/06/09 10:38:01;;;;;;;4.20;0.40;;;;;;;22.66;36.79;100703.58;125882;1090;24421;-58
2021/06/09 10:40:34;;;;;;;3.25;0.50;;;;;;;22.74;37.45;100705.17;126044;1090;22742;-58
2021/06/09 10:43:07;;;;;;;1.08;0.40;;;;;;;22.82;36.51;100711.73;126120;1090;22848;-58
2021/06/09 10:45:41;;;;;;;2.78;0.35;;;;;;;22.82;36.61;100719.50;125973;1090;27325;-57
2021/06/09 10:48:16;;;;;;;1.90;0.45;;;;;;;22.71;36.47;100706.29;126023;1089;22800;-58
2021/06/09 10:50:47;;;;;;;4.38;0.40;;;;;;;22.73;37.04;100703.66;126042;1089;24418;-58
2021/06/09 10:53:19;;;;;;;1.70;0.33;;;;;;;22.76;36.41;100699.69;125965;1090;23445;-57
2021/06/09 10:55:51;;;;;;;2.08;0.40;;;;;;;22.84;36.00;100711.17;125964;1089;22877;-58
2021/06/09 10:58:24;;;;;;;1.05;0.30;;;;;;;22.88;36.43;100714.44;126058;1090;22735;-57
2021/06/09 11:00:58;;;;;;;1.33;0.30;;;;;;;22.90;36.88;100697.56;126020;1090;26244;-58
2021/06/09 11:03:33;;;;;;;7.43;0.40;;;;;;;22.90;36.67;100691.87;126003;1090;22759;-57
2021/06/09 11:06:05;;;;;;;1.18;0.30;;;;;;;22.95;34.63;100694.58;125799;1090;27623;-57
2021/06/09 11:08:37;;;;;;;1.57;0.20;;;;;;;22.94;34.78;100687.36;126009;1090;22754;-56
2021/06/09 11:11:19;;;;;;;1.63;0.30;;;;;;;22.95;35.48;100693.80;126035;1090;23238;-57
2021/06/09 11:13:51;;;;;;;1.30;0.30;;;;;;;22.98;35.62;100698.40;126057;1090;22764;-58
2021/06/09 11:16:22;;;;;;;1.28;0.28;;;;;;;22.98;35.47;100704.87;126008;1090;22762;-57
2021/06/09 11:18:53;;;;;;;4.55;0.40;;;;;;;22.93;35.15;100697.21;126011;1090;22845;-58
2021/06/09 11:21:36;;;;;;;2.43;0.38;;;;;;;22.87;35.34;100695.81;125934;1090;27189;-58
2021/06/09 11:24:12;;;;;;;1.73;0.30;;;;;;;22.92;35.71;100675.77;125936;1090;28376;-59
2021/06/09 11:26:43;;;;;;;3.30;0.33;;;;;;;23.02;36.01;100687.42;125960;1090;22781;-58
2021/06/09 11:29:31;;;;;;;0.70;0.20;;;;;;;23.09;35.50;100693.19;125981;1090;24603;-58
2021/06/09 11:32:20;;;;;;;5.55;0.48;;;;;;;23.09;35.33;100683.89;126001;1090;22819;-57
2021/06/09 11:34:59;;;;;;;1.13;0.38;;;;;;;23.06;35.48;100687.84;125979;1090;22791;-57
2021/06/09 11:37:30;;;;;;;2.65;0.30;;;;;;;23.00;34.93;100676.60;125928;1090;22838;-57
2021/06/09 11:40:03;;;;;;;0.70;0.30;;;;;;;22.99;36.03;100666.52;125999;1089;22790;-58
2021/06/09 11:42:35;;;;;;;3.05;0.40;;;;;;;23.12;35.71;100683.54;126063;1090;22852;-57
2021/06/09 11:45:33;;;;;;;1.18;0.25;;;;;;;23.25;35.48;100674.16;125989;1090;22914;-58